sensor_id;sensor_type;location;lat;lon;timestamp;P1;durP1;ratioP1;P2;durP2;ratioP2
66256;SDS011;53049;43.446;3.698;2023-11-22T00:02:17;1.67;;;1.10;;
66256;SDS011;53049;43.446;3.698;2023-11-22T00:04:43;3.67;;;1.42;;
66256;SDS011;53049;43.446;3.698;2023-11-22T00:07:08;2.47;;;1.08;;
66256;SDS011;53049;43.446;3.698;2023-11-22T00:09:34;1.42;;;1.08;;
66256;SDS011;53049;43.446;3.698;2023-11-22T00:12:00;1.08;;;1.05;;
66256;SDS011;53049;43.446;3.698;2023-11-22T00:14:26;1.88;;;1.00;;
66256;SDS011;53049;43.446;3.698;2023-11-22T00:16:52;2.40;;;1.00;;
66256;SDS011;53049;43.446;3.698;2023-11-22T00:19:18;1.30;;;1.00;;
66256;SDS011;53049;43.446;3.698;2023-11-22T00:21:47;1.50;;;1.05;;
66256;SDS011;53049;43.446;3.698;2023-11-22T00:24:13;1.55;;;1.20;;
66256;SDS011;53049;43.446;3.698;2023-11-22T00:26:39;1.65;;;1.05;;
66256;SDS011;53049;43.446;3.698;2023-11-22T00:29:06;0.95;;;0.88;;
66256;SDS011;53049;43.446;3.698;2023-11-22T00:31:32;1.20;;;1.10;;
66256;SDS011;53049;43.446;3.698;2023-11-22T00:33:57;1.10;;;1.00;;
66256;SDS011;53049;43.446;3.698;2023-11-22T00:36:23;1.52;;;1.10;;
66256;SDS011;53049;43.446;3.698;2023-11-22T00:38:49;1.52;;;1.00;;
66256;SDS011;53049;43.446;3.698;2023-11-22T00:41:15;0.80;;;0.80;;
66256;SDS011;53049;43.446;3.698;2023-11-22T00:43:40;0.70;;;0.70;;
66256;SDS011;53049;43.446;3.698;2023-11-22T00:46:06;0.75;;;0.75;;
66256;SDS011;53049;43.446;3.698;2023-11-22T00:48:32;1.55;;;1.00;;
66256;SDS011;53049;43.446;3.698;2023-11-22T00:50:57;0.93;;;0.80;;
66256;SDS011;53049;43.446;3.698;2023-11-22T00:53:24;0.98;;;0.88;;
66256;SDS011;53049;43.446;3.698;2023-11-22T00:55:50;2.58;;;0.93;;
66256;SDS011;53049;43.446;3.698;2023-11-22T00:58:15;2.45;;;1.08;;
66256;SDS011;53049;43.446;3.698;2023-11-22T01:00:41;2.15;;;1.20;;
66256;SDS011;53049;43.446;3.698;2023-11-22T01:03:07;1.52;;;1.08;;
66256;SDS011;53049;43.446;3.698;2023-11-22T01:05:36;2.67;;;1.23;;
66256;SDS011;53049;43.446;3.698;2023-11-22T01:08:02;0.77;;;0.77;;
66256;SDS011;53049;43.446;3.698;2023-11-22T01:10:28;1.15;;;0.82;;
66256;SDS011;53049;43.446;3.698;2023-11-22T01:12:54;1.05;;;0.95;;
66256;SDS011;53049;43.446;3.698;2023-11-22T01:15:20;0.70;;;0.70;;
66256;SDS011;53049;43.446;3.698;2023-11-22T01:17:46;1.08;;;1.02;;
66256;SDS011;53049;43.446;3.698;2023-11-22T01:20:12;1.10;;;0.75;;
66256;SDS011;53049;43.446;3.698;2023-11-22T01:22:39;1.05;;;0.80;;
66256;SDS011;53049;43.446;3.698;2023-11-22T01:25:04;0.80;;;0.80;;
66256;SDS011;53049;43.446;3.698;2023-11-22T01:27:30;2.35;;;1.00;;
66256;SDS011;53049;43.446;3.698;2023-11-22T01:29:56;1.05;;;0.90;;
66256;SDS011;53049;43.446;3.698;2023-11-22T01:32:22;1.98;;;0.90;;
66256;SDS011;53049;43.446;3.698;2023-11-22T01:34:47;1.00;;;0.90;;
66256;SDS011;53049;43.446;3.698;2023-11-22T01:37:13;0.90;;;0.88;;
66256;SDS011;53049;43.446;3.698;2023-11-22T01:39:39;1.23;;;0.90;;
66256;SDS011;53049;43.446;3.698;2023-11-22T01:42:08;1.80;;;1.10;;
66256;SDS011;53049;43.446;3.698;2023-11-22T01:44:34;1.15;;;0.90;;
66256;SDS011;53049;43.446;3.698;2023-11-22T01:47:00;2.15;;;1.15;;
66256;SDS011;53049;43.446;3.698;2023-11-22T01:49:28;0.80;;;0.80;;
66256;SDS011;53049;43.446;3.698;2023-11-22T01:51:54;1.73;;;1.15;;
66256;SDS011;53049;43.446;3.698;2023-11-22T01:54:21;1.38;;;0.90;;
66256;SDS011;53049;43.446;3.698;2023-11-22T01:56:48;0.82;;;0.80;;
66256;SDS011;53049;43.446;3.698;2023-11-22T01:59:15;1.00;;;0.90;;
66256;SDS011;53049;43.446;3.698;2023-11-22T02:01:41;0.80;;;0.80;;
66256;SDS011;53049;43.446;3.698;2023-11-22T02:04:08;1.15;;;0.95;;
66256;SDS011;53049;43.446;3.698;2023-11-22T02:06:34;0.90;;;0.90;;
66256;SDS011;53049;43.446;3.698;2023-11-22T02:09:00;1.80;;;1.00;;
66256;SDS011;53049;43.446;3.698;2023-11-22T02:11:26;1.48;;;0.90;;
66256;SDS011;53049;43.446;3.698;2023-11-22T02:13:52;1.05;;;0.85;;
66256;SDS011;53049;43.446;3.698;2023-11-22T02:16:18;1.20;;;0.95;;
66256;SDS011;53049;43.446;3.698;2023-11-22T02:18:45;1.10;;;0.90;;
66256;SDS011;53049;43.446;3.698;2023-11-22T02:21:12;1.90;;;0.80;;
66256;SDS011;53049;43.446;3.698;2023-11-22T02:23:38;1.10;;;0.70;;
66256;SDS011;53049;43.446;3.698;2023-11-22T02:26:04;0.88;;;0.88;;
66256;SDS011;53049;43.446;3.698;2023-11-22T02:28:29;0.80;;;0.80;;
66256;SDS011;53049;43.446;3.698;2023-11-22T02:30:55;1.80;;;1.10;;
66256;SDS011;53049;43.446;3.698;2023-11-22T02:33:21;2.25;;;1.17;;
66256;SDS011;53049;43.446;3.698;2023-11-22T02:35:46;2.25;;;1.00;;
66256;SDS011;53049;43.446;3.698;2023-11-22T02:38:12;0.85;;;0.80;;
66256;SDS011;53049;43.446;3.698;2023-11-22T02:40:38;2.20;;;0.90;;
66256;SDS011;53049;43.446;3.698;2023-11-22T02:43:03;1.35;;;1.05;;
66256;SDS011;53049;43.446;3.698;2023-11-22T02:45:33;0.98;;;0.75;;
66256;SDS011;53049;43.446;3.698;2023-11-22T02:47:59;0.95;;;0.85;;
66256;SDS011;53049;43.446;3.698;2023-11-22T02:50:28;1.30;;;0.90;;
66256;SDS011;53049;43.446;3.698;2023-11-22T02:52:54;0.75;;;0.70;;
66256;SDS011;53049;43.446;3.698;2023-11-22T02:55:20;0.93;;;0.80;;
66256;SDS011;53049;43.446;3.698;2023-11-22T02:57:46;1.10;;;0.90;;
66256;SDS011;53049;43.446;3.698;2023-11-22T03:00:11;0.80;;;0.80;;
66256;SDS011;53049;43.446;3.698;2023-11-22T03:02:41;1.05;;;0.95;;
66256;SDS011;53049;43.446;3.698;2023-11-22T03:05:07;1.20;;;1.08;;
66256;SDS011;53049;43.446;3.698;2023-11-22T03:07:34;1.30;;;1.20;;
66256;SDS011;53049;43.446;3.698;2023-11-22T03:10:01;0.82;;;0.80;;
66256;SDS011;53049;43.446;3.698;2023-11-22T03:12:28;0.80;;;0.80;;
66256;SDS011;53049;43.446;3.698;2023-11-22T03:14:53;0.98;;;0.90;;
66256;SDS011;53049;43.446;3.698;2023-11-22T03:17:23;2.45;;;1.00;;
66256;SDS011;53049;43.446;3.698;2023-11-22T03:19:49;0.88;;;0.88;;
66256;SDS011;53049;43.446;3.698;2023-11-22T03:22:16;1.40;;;1.20;;
66256;SDS011;53049;43.446;3.698;2023-11-22T03:24:42;1.17;;;0.90;;
66256;SDS011;53049;43.446;3.698;2023-11-22T03:27:08;3.20;;;1.10;;
66256;SDS011;53049;43.446;3.698;2023-11-22T03:29:35;1.13;;;1.00;;
66256;SDS011;53049;43.446;3.698;2023-11-22T03:32:03;0.80;;;0.80;;
66256;SDS011;53049;43.446;3.698;2023-11-22T03:34:29;2.40;;;1.05;;
66256;SDS011;53049;43.446;3.698;2023-11-22T03:36:55;0.85;;;0.85;;
66256;SDS011;53049;43.446;3.698;2023-11-22T03:39:20;0.95;;;0.90;;
66256;SDS011;53049;43.446;3.698;2023-11-22T03:41:47;1.38;;;0.95;;
66256;SDS011;53049;43.446;3.698;2023-11-22T03:44:13;1.45;;;0.90;;
66256;SDS011;53049;43.446;3.698;2023-11-22T03:46:39;1.55;;;1.00;;
66256;SDS011;53049;43.446;3.698;2023-11-22T03:49:05;0.88;;;0.88;;
66256;SDS011;53049;43.446;3.698;2023-11-22T03:51:38;1.00;;;0.90;;
66256;SDS011;53049;43.446;3.698;2023-11-22T03:54:04;1.20;;;1.00;;
66256;SDS011;53049;43.446;3.698;2023-11-22T03:56:30;0.90;;;0.90;;
66256;SDS011;53049;43.446;3.698;2023-11-22T03:58:56;1.02;;;0.90;;
66256;SDS011;53049;43.446;3.698;2023-11-22T04:01:22;1.13;;;0.90;;
66256;SDS011;53049;43.446;3.698;2023-11-22T04:03:48;1.48;;;0.90;;
66256;SDS011;53049;43.446;3.698;2023-11-22T04:06:16;1.73;;;1.10;;
66256;SDS011;53049;43.446;3.698;2023-11-22T04:08:44;1.17;;;1.00;;
66256;SDS011;53049;43.446;3.698;2023-11-22T04:11:11;1.98;;;1.08;;
66256;SDS011;53049;43.446;3.698;2023-11-22T04:13:38;1.02;;;1.00;;
66256;SDS011;53049;43.446;3.698;2023-11-22T04:16:05;1.40;;;1.20;;
66256;SDS011;53049;43.446;3.698;2023-11-22T04:18:42;2.05;;;1.25;;
66256;SDS011;53049;43.446;3.698;2023-11-22T04:21:08;2.40;;;1.33;;
66256;SDS011;53049;43.446;3.698;2023-11-22T04:23:35;3.15;;;1.30;;
66256;SDS011;53049;43.446;3.698;2023-11-22T04:26:04;2.17;;;1.20;;
66256;SDS011;53049;43.446;3.698;2023-11-22T04:28:32;1.15;;;1.00;;
66256;SDS011;53049;43.446;3.698;2023-11-22T04:30:58;2.00;;;1.20;;
66256;SDS011;53049;43.446;3.698;2023-11-22T04:33:24;2.88;;;1.20;;
66256;SDS011;53049;43.446;3.698;2023-11-22T04:35:50;1.95;;;1.02;;
66256;SDS011;53049;43.446;3.698;2023-11-22T04:38:16;3.45;;;1.48;;
66256;SDS011;53049;43.446;3.698;2023-11-22T04:40:42;2.45;;;1.35;;
66256;SDS011;53049;43.446;3.698;2023-11-22T04:43:08;8.18;;;1.35;;
66256;SDS011;53049;43.446;3.698;2023-11-22T04:45:34;1.15;;;1.02;;
66256;SDS011;53049;43.446;3.698;2023-11-22T04:48:00;1.20;;;1.10;;
66256;SDS011;53049;43.446;3.698;2023-11-22T04:50:26;2.47;;;1.15;;
66256;SDS011;53049;43.446;3.698;2023-11-22T04:52:52;3.42;;;1.25;;
66256;SDS011;53049;43.446;3.698;2023-11-22T04:55:18;2.97;;;1.30;;
66256;SDS011;53049;43.446;3.698;2023-11-22T04:57:50;3.92;;;1.52;;
66256;SDS011;53049;43.446;3.698;2023-11-22T05:00:16;2.13;;;1.20;;
66256;SDS011;53049;43.446;3.698;2023-11-22T05:02:42;3.35;;;1.30;;
66256;SDS011;53049;43.446;3.698;2023-11-22T05:05:08;3.00;;;1.48;;
66256;SDS011;53049;43.446;3.698;2023-11-22T05:07:37;5.15;;;1.60;;
66256;SDS011;53049;43.446;3.698;2023-11-22T05:10:03;1.77;;;1.48;;
66256;SDS011;53049;43.446;3.698;2023-11-22T05:12:29;3.08;;;1.40;;
66256;SDS011;53049;43.446;3.698;2023-11-22T05:14:55;2.38;;;1.27;;
66256;SDS011;53049;43.446;3.698;2023-11-22T05:17:21;7.55;;;1.85;;
66256;SDS011;53049;43.446;3.698;2023-11-22T05:19:47;5.00;;;1.60;;
66256;SDS011;53049;43.446;3.698;2023-11-22T05:22:12;3.80;;;1.77;;
66256;SDS011;53049;43.446;3.698;2023-11-22T05:24:38;2.58;;;1.30;;
66256;SDS011;53049;43.446;3.698;2023-11-22T05:27:06;2.90;;;1.42;;
66256;SDS011;53049;43.446;3.698;2023-11-22T05:29:32;1.77;;;1.40;;
66256;SDS011;53049;43.446;3.698;2023-11-22T05:31:59;4.13;;;1.60;;
66256;SDS011;53049;43.446;3.698;2023-11-22T05:34:25;2.30;;;1.30;;
66256;SDS011;53049;43.446;3.698;2023-11-22T05:36:51;2.13;;;1.50;;
66256;SDS011;53049;43.446;3.698;2023-11-22T05:39:17;1.73;;;1.23;;
66256;SDS011;53049;43.446;3.698;2023-11-22T05:41:43;1.40;;;1.30;;
66256;SDS011;53049;43.446;3.698;2023-11-22T05:44:09;2.17;;;1.20;;
66256;SDS011;53049;43.446;3.698;2023-11-22T05:46:34;2.45;;;1.30;;
66256;SDS011;53049;43.446;3.698;2023-11-22T05:49:00;1.52;;;1.27;;
66256;SDS011;53049;43.446;3.698;2023-11-22T05:51:26;2.58;;;1.30;;
66256;SDS011;53049;43.446;3.698;2023-11-22T05:53:52;1.70;;;1.38;;
66256;SDS011;53049;43.446;3.698;2023-11-22T05:56:17;2.65;;;1.40;;
66256;SDS011;53049;43.446;3.698;2023-11-22T05:58:44;1.92;;;1.30;;
66256;SDS011;53049;43.446;3.698;2023-11-22T06:01:09;2.72;;;1.70;;
66256;SDS011;53049;43.446;3.698;2023-11-22T06:03:37;2.97;;;1.40;;
66256;SDS011;53049;43.446;3.698;2023-11-22T06:06:04;2.30;;;1.40;;
66256;SDS011;53049;43.446;3.698;2023-11-22T06:08:30;2.05;;;1.40;;
66256;SDS011;53049;43.446;3.698;2023-11-22T06:10:56;3.17;;;1.38;;
66256;SDS011;53049;43.446;3.698;2023-11-22T06:13:23;1.88;;;1.20;;
66256;SDS011;53049;43.446;3.698;2023-11-22T06:15:49;7.03;;;1.75;;
66256;SDS011;53049;43.446;3.698;2023-11-22T06:18:15;1.70;;;1.42;;
66256;SDS011;53049;43.446;3.698;2023-11-22T06:20:41;1.95;;;1.40;;
66256;SDS011;53049;43.446;3.698;2023-11-22T06:23:07;2.72;;;1.33;;
66256;SDS011;53049;43.446;3.698;2023-11-22T06:25:33;1.98;;;1.60;;
66256;SDS011;53049;43.446;3.698;2023-11-22T06:28:02;3.22;;;1.52;;
66256;SDS011;53049;43.446;3.698;2023-11-22T06:30:28;3.55;;;1.58;;
66256;SDS011;53049;43.446;3.698;2023-11-22T06:32:55;2.05;;;1.50;;
66256;SDS011;53049;43.446;3.698;2023-11-22T06:35:21;2.60;;;1.40;;
66256;SDS011;53049;43.446;3.698;2023-11-22T06:37:47;1.60;;;1.50;;
66256;SDS011;53049;43.446;3.698;2023-11-22T06:40:13;1.58;;;1.42;;
66256;SDS011;53049;43.446;3.698;2023-11-22T06:42:39;1.67;;;1.17;;
66256;SDS011;53049;43.446;3.698;2023-11-22T06:45:06;2.65;;;1.48;;
66256;SDS011;53049;43.446;3.698;2023-11-22T06:47:44;3.80;;;1.65;;
66256;SDS011;53049;43.446;3.698;2023-11-22T06:50:10;2.70;;;1.70;;
66256;SDS011;53049;43.446;3.698;2023-11-22T06:52:36;2.92;;;1.30;;
66256;SDS011;53049;43.446;3.698;2023-11-22T06:55:03;6.43;;;2.03;;
66256;SDS011;53049;43.446;3.698;2023-11-22T06:57:30;3.80;;;1.80;;
66256;SDS011;53049;43.446;3.698;2023-11-22T06:59:56;3.53;;;1.70;;
66256;SDS011;53049;43.446;3.698;2023-11-22T07:02:22;2.65;;;1.75;;
66256;SDS011;53049;43.446;3.698;2023-11-22T07:04:48;3.80;;;1.40;;
66256;SDS011;53049;43.446;3.698;2023-11-22T07:07:13;4.72;;;1.52;;
66256;SDS011;53049;43.446;3.698;2023-11-22T07:09:43;5.78;;;1.60;;
66256;SDS011;53049;43.446;3.698;2023-11-22T07:12:09;2.25;;;1.30;;
66256;SDS011;53049;43.446;3.698;2023-11-22T07:14:35;5.38;;;2.13;;
66256;SDS011;53049;43.446;3.698;2023-11-22T07:17:01;3.67;;;1.30;;
66256;SDS011;53049;43.446;3.698;2023-11-22T07:19:27;4.68;;;1.50;;
66256;SDS011;53049;43.446;3.698;2023-11-22T07:21:53;5.03;;;1.60;;
66256;SDS011;53049;43.446;3.698;2023-11-22T07:24:19;3.50;;;1.50;;
66256;SDS011;53049;43.446;3.698;2023-11-22T07:26:45;4.78;;;2.10;;
66256;SDS011;53049;43.446;3.698;2023-11-22T07:29:11;5.72;;;1.85;;
66256;SDS011;53049;43.446;3.698;2023-11-22T07:31:37;7.43;;;2.28;;
66256;SDS011;53049;43.446;3.698;2023-11-22T07:34:04;3.65;;;1.67;;
66256;SDS011;53049;43.446;3.698;2023-11-22T07:36:31;11.95;;;2.20;;
66256;SDS011;53049;43.446;3.698;2023-11-22T07:38:56;10.10;;;2.13;;
66256;SDS011;53049;43.446;3.698;2023-11-22T07:41:22;6.57;;;1.88;;
66256;SDS011;53049;43.446;3.698;2023-11-22T07:43:48;7.20;;;1.70;;
66256;SDS011;53049;43.446;3.698;2023-11-22T07:46:14;4.60;;;1.60;;
66256;SDS011;53049;43.446;3.698;2023-11-22T07:48:42;6.97;;;1.92;;
66256;SDS011;53049;43.446;3.698;2023-11-22T07:51:08;2.20;;;1.70;;
66256;SDS011;53049;43.446;3.698;2023-11-22T07:53:34;6.22;;;1.90;;
66256;SDS011;53049;43.446;3.698;2023-11-22T07:56:02;6.55;;;1.50;;
66256;SDS011;53049;43.446;3.698;2023-11-22T07:58:32;10.88;;;2.08;;
66256;SDS011;53049;43.446;3.698;2023-11-22T08:00:59;2.85;;;1.80;;
66256;SDS011;53049;43.446;3.698;2023-11-22T08:03:25;6.00;;;2.00;;
66256;SDS011;53049;43.446;3.698;2023-11-22T08:05:52;9.55;;;1.65;;
66256;SDS011;53049;43.446;3.698;2023-11-22T08:08:21;3.83;;;1.60;;
66256;SDS011;53049;43.446;3.698;2023-11-22T08:10:47;3.35;;;1.55;;
66256;SDS011;53049;43.446;3.698;2023-11-22T08:13:14;5.80;;;2.47;;
66256;SDS011;53049;43.446;3.698;2023-11-22T08:15:41;7.32;;;1.90;;
66256;SDS011;53049;43.446;3.698;2023-11-22T08:18:07;5.25;;;1.80;;
66256;SDS011;53049;43.446;3.698;2023-11-22T08:20:32;9.60;;;2.15;;
66256;SDS011;53049;43.446;3.698;2023-11-22T08:22:58;9.68;;;2.40;;
66256;SDS011;53049;43.446;3.698;2023-11-22T08:25:25;19.05;;;3.88;;
66256;SDS011;53049;43.446;3.698;2023-11-22T08:27:51;11.82;;;2.38;;
66256;SDS011;53049;43.446;3.698;2023-11-22T08:30:17;11.18;;;2.42;;
66256;SDS011;53049;43.446;3.698;2023-11-22T08:32:43;7.80;;;2.60;;
66256;SDS011;53049;43.446;3.698;2023-11-22T08:35:12;7.15;;;2.50;;
66256;SDS011;53049;43.446;3.698;2023-11-22T08:37:39;12.02;;;2.67;;
66256;SDS011;53049;43.446;3.698;2023-11-22T08:40:06;5.95;;;1.60;;
66256;SDS011;53049;43.446;3.698;2023-11-22T08:42:34;5.15;;;1.70;;
66256;SDS011;53049;43.446;3.698;2023-11-22T08:45:01;3.78;;;1.58;;
66256;SDS011;53049;43.446;3.698;2023-11-22T08:47:28;2.85;;;1.48;;
66256;SDS011;53049;43.446;3.698;2023-11-22T08:49:55;3.78;;;1.40;;
66256;SDS011;53049;43.446;3.698;2023-11-22T08:52:22;2.38;;;1.42;;
66256;SDS011;53049;43.446;3.698;2023-11-22T08:54:48;5.85;;;1.70;;
66256;SDS011;53049;43.446;3.698;2023-11-22T08:57:15;3.47;;;1.58;;
66256;SDS011;53049;43.446;3.698;2023-11-22T08:59:41;6.10;;;1.70;;
66256;SDS011;53049;43.446;3.698;2023-11-22T09:02:06;11.77;;;3.03;;
66256;SDS011;53049;43.446;3.698;2023-11-22T09:04:37;10.20;;;2.60;;
66256;SDS011;53049;43.446;3.698;2023-11-22T09:07:03;16.92;;;3.95;;
66256;SDS011;53049;43.446;3.698;2023-11-22T09:09:31;13.90;;;2.92;;
66256;SDS011;53049;43.446;3.698;2023-11-22T09:11:57;5.32;;;2.00;;
66256;SDS011;53049;43.446;3.698;2023-11-22T09:14:23;2.33;;;1.33;;
66256;SDS011;53049;43.446;3.698;2023-11-22T09:16:49;18.15;;;3.30;;
66256;SDS011;53049;43.446;3.698;2023-11-22T09:19:20;9.07;;;2.40;;
66256;SDS011;53049;43.446;3.698;2023-11-22T09:21:49;2.63;;;1.20;;
66256;SDS011;53049;43.446;3.698;2023-11-22T09:24:16;3.13;;;1.20;;
66256;SDS011;53049;43.446;3.698;2023-11-22T09:26:41;3.53;;;0.80;;
66256;SDS011;53049;43.446;3.698;2023-11-22T09:29:08;5.22;;;1.80;;
66256;SDS011;53049;43.446;3.698;2023-11-22T09:31:38;4.10;;;1.98;;
66256;SDS011;53049;43.446;3.698;2023-11-22T09:34:04;7.10;;;2.47;;
66256;SDS011;53049;43.446;3.698;2023-11-22T09:36:30;7.43;;;1.70;;
66256;SDS011;53049;43.446;3.698;2023-11-22T09:38:59;14.48;;;3.72;;
66256;SDS011;53049;43.446;3.698;2023-11-22T09:41:25;13.80;;;3.45;;
66256;SDS011;53049;43.446;3.698;2023-11-22T09:43:52;6.90;;;1.60;;
66256;SDS011;53049;43.446;3.698;2023-11-22T09:46:18;3.38;;;1.20;;
66256;SDS011;53049;43.446;3.698;2023-11-22T09:48:47;1.15;;;1.02;;
66256;SDS011;53049;43.446;3.698;2023-11-22T09:51:25;2.03;;;1.10;;
66256;SDS011;53049;43.446;3.698;2023-11-22T09:53:57;2.45;;;1.20;;
66256;SDS011;53049;43.446;3.698;2023-11-22T09:56:25;6.32;;;1.27;;
66256;SDS011;53049;43.446;3.698;2023-11-22T09:58:53;2.10;;;0.90;;
66256;SDS011;53049;43.446;3.698;2023-11-22T10:01:21;5.28;;;1.20;;
66256;SDS011;53049;43.446;3.698;2023-11-22T10:03:47;1.73;;;1.00;;
66256;SDS011;53049;43.446;3.698;2023-11-22T10:06:13;1.00;;;0.90;;
66256;SDS011;53049;43.446;3.698;2023-11-22T10:08:42;1.33;;;0.88;;
66256;SDS011;53049;43.446;3.698;2023-11-22T10:11:08;3.70;;;1.13;;
66256;SDS011;53049;43.446;3.698;2023-11-22T10:13:34;1.77;;;0.85;;
66256;SDS011;53049;43.446;3.698;2023-11-22T10:16:10;3.05;;;1.23;;
66256;SDS011;53049;43.446;3.698;2023-11-22T10:18:43;1.52;;;1.00;;
66256;SDS011;53049;43.446;3.698;2023-11-22T10:21:29;1.50;;;1.00;;
66256;SDS011;53049;43.446;3.698;2023-11-22T10:24:01;3.13;;;1.20;;
66256;SDS011;53049;43.446;3.698;2023-11-22T10:26:28;1.63;;;1.10;;
66256;SDS011;53049;43.446;3.698;2023-11-22T10:28:54;1.48;;;1.10;;
66256;SDS011;53049;43.446;3.698;2023-11-22T10:31:21;1.70;;;1.10;;
66256;SDS011;53049;43.446;3.698;2023-11-22T10:33:48;2.42;;;1.00;;
66256;SDS011;53049;43.446;3.698;2023-11-22T10:36:14;3.92;;;1.15;;
66256;SDS011;53049;43.446;3.698;2023-11-22T10:38:41;2.00;;;0.90;;
66256;SDS011;53049;43.446;3.698;2023-11-22T10:41:11;2.75;;;1.48;;
66256;SDS011;53049;43.446;3.698;2023-11-22T10:43:38;2.90;;;1.15;;
66256;SDS011;53049;43.446;3.698;2023-11-22T10:46:07;1.73;;;1.23;;
66256;SDS011;53049;43.446;3.698;2023-11-22T10:48:35;0.70;;;0.70;;
66256;SDS011;53049;43.446;3.698;2023-11-22T10:51:02;1.35;;;1.10;;
66256;SDS011;53049;43.446;3.698;2023-11-22T10:53:33;2.28;;;1.15;;
66256;SDS011;53049;43.446;3.698;2023-11-22T10:56:08;1.05;;;0.90;;
66256;SDS011;53049;43.446;3.698;2023-11-22T11:01:13;2.90;;;1.15;;
66256;SDS011;53049;43.446;3.698;2023-11-22T11:03:55;2.22;;;0.98;;
66256;SDS011;53049;43.446;3.698;2023-11-22T11:06:26;2.03;;;0.90;;
66256;SDS011;53049;43.446;3.698;2023-11-22T11:08:59;2.58;;;1.00;;
66256;SDS011;53049;43.446;3.698;2023-11-22T11:11:27;1.33;;;0.90;;
66256;SDS011;53049;43.446;3.698;2023-11-22T11:13:54;2.47;;;0.90;;
66256;SDS011;53049;43.446;3.698;2023-11-22T11:16:20;0.95;;;0.88;;
66256;SDS011;53049;43.446;3.698;2023-11-22T11:18:48;2.53;;;1.20;;
66256;SDS011;53049;43.446;3.698;2023-11-22T11:21:15;2.35;;;0.90;;
66256;SDS011;53049;43.446;3.698;2023-11-22T11:23:41;1.25;;;0.80;;
66256;SDS011;53049;43.446;3.698;2023-11-22T11:26:18;1.25;;;0.88;;
66256;SDS011;53049;43.446;3.698;2023-11-22T11:28:48;1.83;;;1.00;;
66256;SDS011;53049;43.446;3.698;2023-11-22T11:31:15;2.25;;;1.10;;
66256;SDS011;53049;43.446;3.698;2023-11-22T11:36:16;1.70;;;1.00;;
66256;SDS011;53049;43.446;3.698;2023-11-22T11:38:51;1.00;;;0.85;;
66256;SDS011;53049;43.446;3.698;2023-11-22T11:41:18;2.80;;;1.02;;
66256;SDS011;53049;43.446;3.698;2023-11-22T11:43:47;2.33;;;1.10;;
66256;SDS011;53049;43.446;3.698;2023-11-22T11:46:14;2.72;;;1.13;;
66256;SDS011;53049;43.446;3.698;2023-11-22T11:48:44;2.42;;;1.05;;
66256;SDS011;53049;43.446;3.698;2023-11-22T11:51:17;1.58;;;1.10;;
66256;SDS011;53049;43.446;3.698;2023-11-22T11:53:46;3.38;;;1.10;;
66256;SDS011;53049;43.446;3.698;2023-11-22T11:56:13;1.35;;;0.98;;
66256;SDS011;53049;43.446;3.698;2023-11-22T11:58:40;1.08;;;0.85;;
66256;SDS011;53049;43.446;3.698;2023-11-22T12:01:08;1.23;;;1.08;;
66256;SDS011;53049;43.446;3.698;2023-11-22T12:03:37;1.42;;;1.20;;
66256;SDS011;53049;43.446;3.698;2023-11-22T12:06:03;1.05;;;0.90;;
66256;SDS011;53049;43.446;3.698;2023-11-22T12:08:33;2.00;;;0.90;;
66256;SDS011;53049;43.446;3.698;2023-11-22T12:11:02;2.22;;;1.10;;
66256;SDS011;53049;43.446;3.698;2023-11-22T12:13:35;1.17;;;1.08;;
66256;SDS011;53049;43.446;3.698;2023-11-22T12:16:08;1.30;;;1.08;;
66256;SDS011;53049;43.446;3.698;2023-11-22T12:18:46;3.25;;;1.90;;
66256;SDS011;53049;43.446;3.698;2023-11-22T12:21:13;1.65;;;1.08;;
66256;SDS011;53049;43.446;3.698;2023-11-22T12:23:40;0.90;;;0.90;;
66256;SDS011;53049;43.446;3.698;2023-11-22T12:26:25;2.13;;;0.93;;
66256;SDS011;53049;43.446;3.698;2023-11-22T12:28:51;1.48;;;1.00;;
66256;SDS011;53049;43.446;3.698;2023-11-22T12:31:18;2.85;;;1.00;;
66256;SDS011;53049;43.446;3.698;2023-11-22T12:33:44;3.58;;;1.25;;
66256;SDS011;53049;43.446;3.698;2023-11-22T12:36:11;0.90;;;0.90;;
66256;SDS011;53049;43.446;3.698;2023-11-22T12:38:41;1.15;;;1.05;;
66256;SDS011;53049;43.446;3.698;2023-11-22T12:41:07;1.55;;;1.30;;
66256;SDS011;53049;43.446;3.698;2023-11-22T12:43:33;1.77;;;1.40;;
66256;SDS011;53049;43.446;3.698;2023-11-22T12:46:00;0.90;;;0.90;;
66256;SDS011;53049;43.446;3.698;2023-11-22T12:48:32;1.58;;;1.10;;
66256;SDS011;53049;43.446;3.698;2023-11-22T12:50:59;2.20;;;1.17;;
66256;SDS011;53049;43.446;3.698;2023-11-22T12:53:25;1.73;;;1.40;;
66256;SDS011;53049;43.446;3.698;2023-11-22T12:55:55;2.53;;;1.30;;
66256;SDS011;53049;43.446;3.698;2023-11-22T12:58:25;2.30;;;1.30;;
66256;SDS011;53049;43.446;3.698;2023-11-22T13:00:52;3.28;;;1.40;;
66256;SDS011;53049;43.446;3.698;2023-11-22T13:03:23;1.30;;;1.20;;
66256;SDS011;53049;43.446;3.698;2023-11-22T13:05:49;2.08;;;1.30;;
66256;SDS011;53049;43.446;3.698;2023-11-22T13:08:17;1.17;;;0.93;;
66256;SDS011;53049;43.446;3.698;2023-11-22T13:10:46;1.17;;;1.08;;
66256;SDS011;53049;43.446;3.698;2023-11-22T13:13:15;1.45;;;1.08;;
66256;SDS011;53049;43.446;3.698;2023-11-22T13:15:40;1.00;;;0.90;;
66256;SDS011;53049;43.446;3.698;2023-11-22T13:18:07;1.05;;;1.05;;
66256;SDS011;53049;43.446;3.698;2023-11-22T13:20:33;1.60;;;1.05;;
66256;SDS011;53049;43.446;3.698;2023-11-22T13:23:00;1.00;;;1.00;;
66256;SDS011;53049;43.446;3.698;2023-11-22T13:25:27;1.30;;;1.20;;
66256;SDS011;53049;43.446;3.698;2023-11-22T13:27:53;2.88;;;1.10;;
66256;SDS011;53049;43.446;3.698;2023-11-22T13:30:21;1.42;;;1.20;;
66256;SDS011;53049;43.446;3.698;2023-11-22T13:32:54;1.42;;;1.00;;
66256;SDS011;53049;43.446;3.698;2023-11-22T13:37:52;1.10;;;1.02;;
66256;SDS011;53049;43.446;3.698;2023-11-22T13:40:18;0.82;;;0.82;;
66256;SDS011;53049;43.446;3.698;2023-11-22T13:42:48;1.05;;;1.05;;
66256;SDS011;53049;43.446;3.698;2023-11-22T13:45:16;1.17;;;1.08;;
66256;SDS011;53049;43.446;3.698;2023-11-22T13:47:46;1.55;;;1.08;;
66256;SDS011;53049;43.446;3.698;2023-11-22T13:50:14;1.30;;;0.98;;
66256;SDS011;53049;43.446;3.698;2023-11-22T13:52:44;1.23;;;1.10;;
66256;SDS011;53049;43.446;3.698;2023-11-22T13:55:13;1.23;;;1.10;;
66256;SDS011;53049;43.446;3.698;2023-11-22T13:57:41;1.40;;;1.00;;
66256;SDS011;53049;43.446;3.698;2023-11-22T14:00:07;2.80;;;1.02;;
66256;SDS011;53049;43.446;3.698;2023-11-22T14:02:39;1.38;;;1.20;;
66256;SDS011;53049;43.446;3.698;2023-11-22T14:05:08;4.03;;;1.80;;
66256;SDS011;53049;43.446;3.698;2023-11-22T14:07:35;2.40;;;1.10;;
66256;SDS011;53049;43.446;3.698;2023-11-22T14:10:01;1.30;;;1.20;;
66256;SDS011;53049;43.446;3.698;2023-11-22T14:12:28;2.35;;;1.20;;
66256;SDS011;53049;43.446;3.698;2023-11-22T14:14:57;1.13;;;1.10;;
66256;SDS011;53049;43.446;3.698;2023-11-22T14:17:24;1.55;;;1.17;;
66256;SDS011;53049;43.446;3.698;2023-11-22T14:19:50;2.10;;;1.00;;
66256;SDS011;53049;43.446;3.698;2023-11-22T14:22:20;1.48;;;1.35;;
66256;SDS011;53049;43.446;3.698;2023-11-22T14:24:47;1.27;;;1.17;;
66256;SDS011;53049;43.446;3.698;2023-11-22T14:27:19;1.10;;;1.00;;
66256;SDS011;53049;43.446;3.698;2023-11-22T14:29:48;1.98;;;1.20;;
66256;SDS011;53049;43.446;3.698;2023-11-22T14:32:15;3.30;;;1.40;;
66256;SDS011;53049;43.446;3.698;2023-11-22T14:34:42;2.10;;;1.38;;
66256;SDS011;53049;43.446;3.698;2023-11-22T14:37:11;2.35;;;1.67;;
66256;SDS011;53049;43.446;3.698;2023-11-22T14:39:38;6.28;;;1.50;;
66256;SDS011;53049;43.446;3.698;2023-11-22T14:42:04;1.48;;;1.20;;
66256;SDS011;53049;43.446;3.698;2023-11-22T14:44:35;3.30;;;1.17;;
66256;SDS011;53049;43.446;3.698;2023-11-22T14:47:02;2.90;;;1.30;;
66256;SDS011;53049;43.446;3.698;2023-11-22T14:49:32;2.40;;;1.23;;
66256;SDS011;53049;43.446;3.698;2023-11-22T14:51:58;2.40;;;1.20;;
66256;SDS011;53049;43.446;3.698;2023-11-22T14:54:24;3.67;;;1.10;;
66256;SDS011;53049;43.446;3.698;2023-11-22T14:56:51;2.92;;;1.17;;